createdAt,value
2018-04-19T00:06:08.054Z,4.03
2018-04-19T00:08:36.326Z,4.60
2018-04-19T00:11:04.704Z,3.80
2018-04-19T00:13:33.031Z,4.00
2018-04-19T00:16:01.279Z,3.97
2018-04-19T00:18:30.348Z,4.28
2018-04-19T00:20:58.616Z,3.70
2018-04-19T00:23:26.863Z,4.17
2018-04-19T00:25:55.119Z,4.47
2018-04-19T00:28:23.402Z,4.70
2018-04-19T00:30:51.656Z,3.97
2018-04-19T00:33:20.673Z,4.23
2018-04-19T00:35:48.970Z,3.77
2018-04-19T00:38:17.976Z,4.20
2018-04-19T00:40:46.228Z,3.70
2018-04-19T00:43:14.500Z,4.27
2018-04-19T00:45:42.763Z,3.70
2018-04-19T00:48:11.022Z,4.00
2018-04-19T00:50:40.055Z,3.95
2018-04-19T00:53:10.090Z,4.13
2018-04-19T00:55:38.336Z,3.87
2018-04-19T00:58:07.365Z,3.63
2018-04-19T01:00:35.634Z,3.80
2018-04-19T01:03:03.907Z,3.50
2018-04-19T01:05:32.195Z,4.00
2018-04-19T01:08:00.449Z,3.70
2018-04-19T01:10:28.703Z,3.50
2018-04-19T01:12:57.731Z,3.43
2018-04-19T01:15:25.979Z,4.00
2018-04-19T01:17:54.253Z,3.50
2018-04-19T01:20:22.515Z,3.60
2018-04-19T01:22:50.762Z,3.20
2018-04-19T01:25:19.807Z,3.83
2018-04-19T01:27:48.076Z,3.40
2018-04-19T01:30:16.319Z,3.13
2018-04-19T01:32:44.577Z,3.50
2018-04-19T01:35:12.852Z,2.97
2018-04-19T01:37:41.105Z,3.63
2018-04-19T01:40:09.361Z,3.43
2018-04-19T01:42:37.624Z,3.17
2018-04-19T01:45:05.875Z,3.70
2018-04-19T01:47:34.140Z,3.90
2018-04-19T01:50:02.411Z,3.20
2018-04-19T01:52:30.665Z,3.00
2018-04-19T01:54:59.697Z,3.47
2018-04-19T01:57:27.956Z,3.20
2018-04-19T01:59:56.976Z,3.23
2018-04-19T02:02:25.227Z,3.00
2018-04-19T02:04:53.504Z,3.50
2018-04-19T02:07:21.759Z,3.20
2018-04-19T02:09:50.013Z,3.70
2018-04-19T02:12:19.044Z,3.50
2018-04-19T02:14:47.310Z,3.40
2018-04-19T02:17:15.575Z,3.60
2018-04-19T02:19:43.847Z,3.47
2018-04-19T02:22:12.150Z,3.63
2018-04-19T02:24:40.392Z,3.40
2018-04-19T02:27:08.726Z,3.50
2018-04-19T02:29:37.064Z,3.40
2018-04-19T02:32:06.093Z,3.47
2018-04-19T02:34:34.367Z,3.40
2018-04-19T02:37:02.627Z,3.70
2018-04-19T02:39:30.890Z,3.70
2018-04-19T02:41:59.143Z,3.90
2018-04-19T02:44:27.421Z,4.20
2018-04-19T02:46:56.444Z,3.83
2018-04-19T02:49:24.711Z,3.87
2018-04-19T02:51:53.740Z,3.87
2018-04-19T02:54:21.996Z,4.03
2018-04-19T02:56:50.264Z,3.37
2018-04-19T02:59:18.525Z,3.83
2018-04-19T03:01:46.810Z,3.77
2018-04-19T03:04:15.090Z,3.90
2018-04-19T03:06:43.343Z,4.07
2018-04-19T03:09:12.479Z,4.10
2018-04-19T03:11:41.510Z,3.93
2018-04-19T03:14:09.779Z,4.27
2018-04-19T03:16:38.805Z,3.90
2018-04-19T03:19:07.070Z,4.77
2018-04-19T03:21:36.093Z,4.30
2018-04-19T03:24:04.354Z,4.10
2018-04-19T03:26:33.397Z,4.50
2018-04-19T03:29:01.725Z,4.05
2018-04-19T03:31:29.933Z,3.90
2018-04-19T03:33:58.207Z,4.10
2018-04-19T03:36:26.469Z,3.73
2018-04-19T03:38:54.735Z,4.30
2018-04-19T03:41:23.002Z,4.10
2018-04-19T03:43:52.022Z,4.47
2018-04-19T03:46:20.286Z,4.20
2018-04-19T03:48:48.544Z,4.53
2018-04-19T03:51:16.800Z,4.80
2018-04-19T03:53:45.064Z,4.40
2018-04-19T03:56:14.100Z,4.50
2018-04-19T03:58:42.366Z,4.33
2018-04-19T04:01:11.492Z,4.40
2018-04-19T04:03:40.416Z,4.70
2018-04-19T04:06:08.669Z,4.73
2018-04-19T04:08:37.714Z,4.43
2018-04-19T04:11:05.998Z,4.47
2018-04-19T04:13:34.309Z,4.93
2018-04-19T04:16:02.576Z,4.37
2018-04-19T04:18:48.273Z,4.90
2018-04-19T04:21:19.298Z,4.93
2018-04-19T04:23:53.372Z,4.80
2018-04-19T04:26:21.612Z,4.97
2018-04-19T04:28:49.888Z,4.80
2018-04-19T04:31:18.193Z,4.73
2018-04-19T04:33:46.427Z,4.53
2018-04-19T04:36:14.715Z,4.43
2018-04-19T04:38:43.003Z,4.70
2018-04-19T04:41:11.267Z,4.27
2018-04-19T04:43:39.533Z,4.70
2018-04-19T04:46:07.857Z,4.80
2018-04-19T04:48:36.213Z,4.70
2018-04-19T04:51:04.480Z,4.77
2018-04-19T04:53:32.756Z,4.83
2018-04-19T04:56:01.132Z,4.93
2018-04-19T04:58:29.401Z,5.10
2018-04-19T05:00:59.796Z,5.18
2018-04-19T05:03:28.080Z,4.83
2018-04-19T05:05:56.339Z,4.80
2018-04-19T05:08:24.603Z,5.20
2018-04-19T05:10:53.619Z,4.80
2018-04-19T05:13:21.894Z,5.33
2018-04-19T05:15:50.170Z,5.60
2018-04-19T05:18:18.431Z,5.07
2018-04-19T05:20:46.696Z,5.47
2018-04-19T05:23:14.967Z,5.17
2018-04-19T05:25:43.985Z,5.73
2018-04-19T05:28:12.241Z,5.40
2018-04-19T05:30:40.558Z,5.30
2018-04-19T05:33:09.568Z,5.27
2018-04-19T05:35:37.844Z,5.32
2018-04-19T05:38:06.889Z,5.00
2018-04-19T05:40:35.181Z,5.03
2018-04-19T05:43:03.461Z,5.50
2018-04-19T05:45:31.728Z,5.30
2018-04-19T05:48:00.011Z,6.13
2018-04-19T05:50:29.060Z,5.30
2018-04-19T05:52:57.325Z,5.23
2018-04-19T05:55:25.599Z,5.60
2018-04-19T05:57:54.619Z,5.43
2018-04-19T06:00:22.871Z,5.70
2018-04-19T06:02:51.143Z,5.63
2018-04-19T06:05:19.383Z,5.67
2018-04-19T06:07:47.667Z,5.63
2018-04-19T06:10:16.686Z,5.80
2018-04-19T06:12:44.965Z,5.68
2018-04-19T06:15:14.016Z,5.57
2018-04-19T06:17:42.248Z,5.70
2018-04-19T06:20:11.263Z,5.63
2018-04-19T06:22:40.298Z,6.20
2018-04-19T06:25:08.572Z,5.73
2018-04-19T06:27:36.874Z,5.57
2018-04-19T06:30:05.984Z,5.93
2018-04-19T06:32:34.254Z,5.50
2018-04-19T06:35:03.321Z,5.90
2018-04-19T06:37:31.593Z,5.93
2018-04-19T06:39:59.869Z,5.57
2018-04-19T06:42:28.147Z,6.00
2018-04-19T06:44:56.412Z,5.90
2018-04-19T06:47:24.678Z,6.33
2018-04-19T06:49:52.930Z,5.93
2018-04-19T06:52:21.193Z,5.53
2018-04-19T06:54:50.231Z,5.90
2018-04-19T06:57:18.492Z,5.80
2018-04-19T06:59:47.516Z,5.20
2018-04-19T07:02:15.780Z,5.67
2018-04-19T07:04:44.033Z,5.47
2018-04-19T07:07:12.313Z,5.77
2018-04-19T07:09:40.561Z,5.30
2018-04-19T07:12:09.583Z,5.33
2018-04-19T07:14:37.888Z,4.90
2018-04-19T07:17:06.929Z,4.90
2018-04-19T07:19:35.199Z,4.70
2018-04-19T07:22:03.528Z,4.43
2018-04-19T07:24:32.568Z,4.60
2018-04-19T07:27:01.088Z,4.50
2018-04-19T07:29:30.167Z,4.37
2018-04-19T07:31:58.415Z,4.47
2018-04-19T07:34:26.675Z,4.30
2018-04-19T07:36:54.942Z,4.63
2018-04-19T07:39:23.216Z,4.40
2018-04-19T07:41:52.269Z,4.03
2018-04-19T07:44:20.536Z,4.40
2018-04-19T07:46:48.781Z,4.47
2018-04-19T07:49:17.042Z,4.27
2018-04-19T07:51:45.307Z,4.03
2018-04-19T07:54:13.580Z,4.00
2018-04-19T07:56:41.830Z,4.00
2018-04-19T07:59:10.097Z,3.70
2018-04-19T08:01:38.463Z,3.90
2018-04-19T08:04:06.730Z,3.43
2018-04-19T08:06:35.802Z,3.60
2018-04-19T08:09:04.071Z,3.60
2018-04-19T08:11:33.111Z,4.00
2018-04-19T08:14:01.390Z,3.50
2018-04-19T08:16:29.657Z,3.80
2018-04-19T08:18:57.903Z,3.20
2018-04-19T08:21:26.937Z,3.60
2018-04-19T08:23:55.183Z,3.20
2018-04-19T08:26:23.479Z,3.73
2018-04-19T08:28:52.519Z,3.80
2018-04-19T08:31:20.762Z,3.30
2018-04-19T08:33:49.020Z,3.97
2018-04-19T08:36:17.282Z,3.77
2018-04-19T08:38:45.537Z,3.43
2018-04-19T08:41:13.791Z,3.97
2018-04-19T08:43:42.092Z,3.20
2018-04-19T08:46:10.340Z,3.53
2018-04-19T08:48:38.601Z,3.70
2018-04-19T08:51:06.859Z,3.97
2018-04-19T08:53:35.117Z,3.40
2018-04-19T08:56:03.404Z,3.70
2018-04-19T08:58:31.676Z,3.90
2018-04-19T09:01:00.680Z,3.37
2018-04-19T09:03:29.721Z,3.40
2018-04-19T09:05:57.982Z,4.00
2018-04-19T09:08:27.001Z,3.43
2018-04-19T09:10:55.245Z,3.37
2018-04-19T09:13:23.516Z,3.33
2018-04-19T09:15:51.768Z,3.70
2018-04-19T09:18:20.027Z,3.60
2018-04-19T09:20:48.296Z,3.37
2018-04-19T09:23:16.566Z,3.57
2018-04-19T09:25:44.833Z,3.40
2018-04-19T09:28:13.140Z,3.63
2018-04-19T09:30:41.429Z,3.60
2018-04-19T09:33:09.676Z,4.00
2018-04-19T09:35:37.936Z,3.90
2018-04-19T09:38:06.212Z,3.40
2018-04-19T09:40:34.512Z,3.50
2018-04-19T09:43:02.823Z,3.70
2018-04-19T09:45:31.073Z,3.40
2018-04-19T09:47:59.319Z,3.67
2018-04-19T09:50:28.367Z,3.53
2018-04-19T09:52:56.620Z,3.47
2018-04-19T09:55:25.640Z,3.62
2018-04-19T09:58:08.648Z,3.30
2018-04-19T10:00:42.289Z,3.17
2018-04-19T10:03:16.711Z,3.70
2018-04-19T10:05:47.511Z,3.67
2018-04-19T10:08:15.775Z,3.60
2018-04-19T10:10:44.056Z,3.60
2018-04-19T10:13:13.064Z,3.60
2018-04-19T10:15:42.089Z,3.43
2018-04-19T10:18:10.359Z,3.20
2018-04-19T10:20:39.409Z,3.47
2018-04-19T10:23:07.735Z,3.30
2018-04-19T10:25:36.010Z,3.57
2018-04-19T10:28:04.300Z,3.57
2018-04-19T10:30:32.586Z,3.27
2018-04-19T10:33:00.865Z,3.00
2018-04-19T10:35:29.119Z,3.10
2018-04-19T10:37:57.374Z,3.73
2018-04-19T10:40:25.651Z,3.77
2018-04-19T10:42:53.903Z,3.17
2018-04-19T10:45:22.164Z,3.50
2018-04-19T10:47:51.206Z,3.10
2018-04-19T10:50:19.486Z,3.10
2018-04-19T10:52:47.738Z,3.10
2018-04-19T10:55:15.999Z,3.07
2018-04-19T10:57:44.268Z,3.17
2018-04-19T11:00:12.528Z,2.93
2018-04-19T11:02:40.810Z,3.00
2018-04-19T11:05:09.824Z,3.07
2018-04-19T11:07:38.075Z,3.03
2018-04-19T11:10:06.356Z,2.83
2018-04-19T11:12:34.621Z,2.80
2018-04-19T11:15:02.907Z,2.70
2018-04-19T11:17:31.173Z,2.90
2018-04-19T11:19:59.446Z,2.90
2018-04-19T11:22:28.476Z,2.83
2018-04-19T11:24:56.740Z,2.90
2018-04-19T11:27:25.762Z,2.90
2018-04-19T11:29:54.032Z,3.17
2018-04-19T11:32:22.299Z,2.73
2018-04-19T11:34:50.574Z,2.93
2018-04-19T11:37:18.822Z,2.70
2018-04-19T11:39:47.512Z,2.80
2018-04-19T11:42:16.543Z,2.43
2018-04-19T11:44:44.791Z,2.80
2018-04-19T11:47:13.059Z,2.77
2018-04-19T11:49:41.328Z,2.70
2018-04-19T11:52:09.576Z,3.30
2018-04-19T11:54:38.637Z,2.90
2018-04-19T11:57:06.888Z,2.67
2018-04-19T11:59:35.144Z,2.70
2018-04-19T12:02:03.449Z,3.00
2018-04-19T12:04:32.486Z,3.00
2018-04-19T12:07:00.744Z,2.90
2018-04-19T12:09:29.919Z,2.90
2018-04-19T12:11:58.190Z,3.00
2018-04-19T12:14:26.455Z,2.73
2018-04-19T12:16:55.475Z,3.20
2018-04-19T12:19:23.731Z,3.20
2018-04-19T12:21:51.979Z,3.13
2018-04-19T12:24:20.243Z,3.00
2018-04-19T12:26:48.541Z,2.47
2018-04-19T12:29:17.523Z,2.60
2018-04-19T12:31:45.800Z,2.60
2018-04-19T12:34:14.830Z,2.87
2018-04-19T12:36:43.083Z,2.20
2018-04-19T12:39:11.348Z,3.30
2018-04-19T12:41:39.604Z,2.30
2018-04-19T12:44:07.879Z,2.67
2018-04-19T12:46:36.921Z,3.17
2018-04-19T12:49:05.204Z,2.30
2018-04-19T12:51:33.611Z,2.40
2018-04-19T12:54:01.901Z,3.00
2018-04-19T12:56:30.167Z,2.90
2018-04-19T12:58:59.175Z,2.60
2018-04-19T13:01:27.427Z,2.70
2018-04-19T13:03:55.687Z,2.40
2018-04-19T13:06:23.943Z,2.50
2018-04-19T13:08:52.212Z,2.50
2018-04-19T13:11:21.232Z,2.57
2018-04-19T13:13:49.480Z,3.03
2018-04-19T13:16:17.753Z,2.80
2018-04-19T13:18:45.997Z,2.60
2018-04-19T13:21:14.259Z,2.50
2018-04-19T13:23:42.531Z,2.50
2018-04-19T13:26:10.860Z,2.60
2018-04-19T13:28:39.165Z,2.37
2018-04-19T13:31:07.448Z,2.60
2018-04-19T13:33:35.729Z,2.80
2018-04-19T13:36:04.743Z,2.60
2018-04-19T13:38:33.123Z,2.53
2018-04-19T13:41:01.428Z,2.60
2018-04-19T13:43:29.692Z,2.30
2018-04-19T13:45:57.962Z,2.50
2018-04-19T13:48:26.212Z,2.70
2018-04-19T13:50:54.467Z,2.40
2018-04-19T13:53:23.543Z,3.00
2018-04-19T13:55:51.788Z,2.40
2018-04-19T13:58:20.036Z,2.87
2018-04-19T14:00:48.309Z,2.93
2018-04-19T14:03:16.564Z,2.43
2018-04-19T14:05:44.846Z,2.77
2018-04-19T14:08:13.180Z,2.50
2018-04-19T14:10:42.165Z,2.67
2018-04-19T14:13:10.417Z,2.30
2018-04-19T14:15:39.470Z,2.37
2018-04-19T14:18:07.761Z,2.50
2018-04-19T14:20:36.019Z,2.60
2018-04-19T14:23:04.309Z,2.80
2018-04-19T14:25:33.331Z,2.73
2018-04-19T14:28:01.613Z,2.50
2018-04-19T14:30:29.885Z,2.60
2018-04-19T14:32:58.917Z,3.00
2018-04-19T14:35:27.184Z,2.77
2018-04-19T14:37:56.214Z,3.03
2018-04-19T14:40:24.481Z,2.83
2018-04-19T14:42:53.500Z,2.73
2018-04-19T14:45:21.768Z,2.40
2018-04-19T14:47:52.022Z,2.43
2018-04-19T14:50:20.290Z,2.17
2018-04-19T14:52:48.565Z,2.03
2018-04-19T14:55:16.833Z,1.97
2018-04-19T14:57:45.134Z,2.13
2018-04-19T15:00:13.373Z,2.47
2018-04-19T15:02:41.626Z,2.20
2018-04-19T15:05:09.904Z,2.07
2018-04-19T15:07:38.172Z,2.23
2018-04-19T15:10:06.439Z,2.40
2018-04-19T15:12:34.709Z,2.30
2018-04-19T15:15:03.786Z,2.30
2018-04-19T15:17:32.100Z,2.30
2018-04-19T15:20:01.196Z,2.53
2018-04-19T15:22:29.404Z,2.27
2018-04-19T15:24:58.445Z,2.50
2018-04-19T15:27:26.691Z,2.20
2018-04-19T15:29:55.723Z,2.03
2018-04-19T15:32:23.971Z,2.30
2018-04-19T15:34:52.231Z,1.80
2018-04-19T15:37:20.495Z,2.17
2018-04-19T15:39:48.752Z,2.23
2018-04-19T15:42:17.024Z,2.40
2018-04-19T15:44:45.284Z,2.72
2018-04-19T15:47:14.299Z,2.60
2018-04-19T15:49:42.569Z,2.67
2018-04-19T15:52:11.608Z,2.13
2018-04-19T15:54:39.934Z,2.37
2018-04-19T15:57:08.201Z,2.23
2018-04-19T15:59:36.485Z,2.40
2018-04-19T16:02:04.837Z,2.67
2018-04-19T16:04:33.076Z,2.63
2018-04-19T16:07:01.370Z,2.20
2018-04-19T16:09:29.643Z,2.10
2018-04-19T16:11:57.894Z,2.30
2018-04-19T16:14:26.183Z,2.10
2018-04-19T16:16:54.427Z,2.30
2018-04-19T16:19:22.701Z,2.90
2018-04-19T16:21:50.955Z,2.27
2018-04-19T16:24:19.217Z,2.53
2018-04-19T16:26:48.291Z,2.30
2018-04-19T16:29:16.574Z,2.90
2018-04-19T16:31:44.828Z,2.80
2018-04-19T16:34:13.072Z,3.20
2018-04-19T16:36:41.370Z,3.00
2018-04-19T16:39:09.620Z,3.40
2018-04-19T16:41:37.898Z,2.50
2018-04-19T16:44:06.175Z,2.90
2018-04-19T16:46:34.435Z,3.13
2018-04-19T16:49:02.718Z,3.17
2018-04-19T16:51:30.978Z,3.40
2018-04-19T16:53:59.241Z,2.87
2018-04-19T16:56:27.510Z,3.10
2018-04-19T16:58:56.548Z,2.90
2018-04-19T17:01:24.797Z,3.27
2018-04-19T17:03:53.850Z,3.03
2018-04-19T17:06:22.129Z,3.10
2018-04-19T17:08:50.406Z,3.27
2018-04-19T17:11:18.688Z,3.50
2018-04-19T17:13:47.723Z,3.07
2018-04-19T17:16:15.988Z,3.07
2018-04-19T17:18:45.057Z,2.97
2018-04-19T17:21:13.326Z,3.43
2018-04-19T17:23:41.592Z,3.23
2018-04-19T17:26:10.103Z,3.10
2018-04-19T17:28:39.296Z,3.03
2018-04-19T17:31:07.565Z,2.90
2018-04-19T17:33:36.582Z,3.10
2018-04-19T17:36:05.679Z,3.00
2018-04-19T17:38:34.743Z,3.60
2018-04-19T17:41:03.077Z,4.00
2018-04-19T17:43:31.336Z,3.30
2018-04-19T17:45:59.606Z,3.20
2018-04-19T17:48:27.857Z,3.17
2018-04-19T17:50:56.898Z,3.27
2018-04-19T17:53:25.173Z,2.80
2018-04-19T17:55:53.452Z,3.13
2018-04-19T17:58:21.725Z,2.87
2018-04-19T18:00:50.772Z,3.30
2018-04-19T18:03:19.342Z,3.30
2018-04-19T18:05:48.411Z,3.17
2018-04-19T18:08:16.671Z,3.50
2018-04-19T18:10:44.953Z,3.30
2018-04-19T18:13:13.214Z,3.80
2018-04-19T18:15:43.460Z,4.03
2018-04-19T18:18:11.724Z,3.87
2018-04-19T18:20:40.004Z,3.60
2018-04-19T18:23:08.280Z,4.20
2018-04-19T18:25:36.577Z,4.27
2018-04-19T18:28:05.653Z,4.18
2018-04-19T18:30:33.921Z,4.70
2018-04-19T18:33:02.168Z,3.77
2018-04-19T18:35:30.448Z,4.43
2018-04-19T18:37:58.716Z,4.20
2018-04-19T18:40:28.708Z,4.00
2018-04-19T18:42:57.739Z,3.73
2018-04-19T18:45:26.128Z,4.40
2018-04-19T18:47:54.344Z,4.10
2018-04-19T18:50:22.601Z,4.03
2018-04-19T18:52:50.856Z,4.67
2018-04-19T18:55:19.121Z,4.67
2018-04-19T18:57:47.389Z,4.10
2018-04-19T19:00:15.677Z,4.27
2018-04-19T19:02:43.935Z,4.50
2018-04-19T19:05:13.009Z,5.00
2018-04-19T19:07:41.287Z,4.70
2018-04-19T19:10:09.549Z,5.73
2018-04-19T19:12:38.603Z,4.90
2018-04-19T19:15:23.182Z,4.77
2018-04-19T19:18:09.079Z,4.87
2018-04-19T19:20:37.480Z,5.33
2018-04-19T19:23:05.789Z,4.68
2018-04-19T19:25:34.149Z,5.10
2018-04-19T19:28:03.062Z,5.53
2018-04-19T19:30:31.304Z,6.07
2018-04-19T19:32:59.588Z,7.03
2018-04-19T19:35:27.841Z,5.80
2018-04-19T19:37:56.114Z,6.20
2018-04-19T19:40:24.377Z,6.00
2018-04-19T19:42:52.643Z,6.00
2018-04-19T19:45:20.897Z,6.40
2018-04-19T19:47:49.166Z,6.10
2018-04-19T19:50:17.419Z,7.03
2018-04-19T19:52:45.677Z,6.63
2018-04-19T19:55:14.789Z,6.53
2018-04-19T19:57:42.990Z,5.80
2018-04-19T20:00:12.031Z,6.27
2018-04-19T20:02:40.312Z,6.40
2018-04-19T20:05:08.582Z,5.80
2018-04-19T20:07:36.877Z,6.10
2018-04-19T20:10:05.209Z,5.77
2018-04-19T20:12:33.544Z,6.03
2018-04-19T20:15:02.604Z,5.90
2018-04-19T20:17:30.882Z,5.93
2018-04-19T20:19:59.141Z,5.23
2018-04-19T20:22:27.401Z,5.50
2018-04-19T20:24:55.679Z,5.40
2018-04-19T20:27:23.940Z,5.33
2018-04-19T20:29:52.959Z,5.10
2018-04-19T20:32:21.221Z,5.83
2018-04-19T20:34:49.487Z,4.90
2018-04-19T20:37:18.504Z,4.93
2018-04-19T20:39:46.775Z,4.97
2018-04-19T20:42:15.867Z,5.30
2018-04-19T20:44:44.154Z,4.57
2018-04-19T20:47:12.423Z,4.57
2018-04-19T20:49:40.693Z,4.80
2018-04-19T20:52:08.977Z,4.87
2018-04-19T20:54:37.273Z,4.13
2018-04-19T20:57:05.565Z,4.33
2018-04-19T20:59:33.820Z,4.37
2018-04-19T21:02:02.924Z,5.00
2018-04-19T21:04:31.130Z,4.50
2018-04-19T21:06:59.372Z,4.67
2018-04-19T21:09:27.639Z,4.60
2018-04-19T21:11:55.896Z,4.20
2018-04-19T21:14:24.190Z,4.70
2018-04-19T21:16:53.236Z,4.10
2018-04-19T21:19:21.506Z,4.40
2018-04-19T21:21:49.751Z,4.30
2018-04-19T21:24:18.799Z,4.70
2018-04-19T21:26:47.046Z,4.10
2018-04-19T21:29:16.285Z,4.78
2018-04-19T21:31:44.559Z,4.83
2018-04-19T21:34:13.597Z,4.73
2018-04-19T21:36:41.864Z,4.20
2018-04-19T21:39:10.895Z,4.40
2018-04-19T21:41:39.166Z,4.40
2018-04-19T21:44:08.197Z,4.40
2018-04-19T21:46:36.472Z,4.80
2018-04-19T21:49:04.727Z,4.33
2018-04-19T21:51:33.276Z,4.53
2018-04-19T21:54:01.586Z,4.17
2018-04-19T21:56:29.846Z,4.30
2018-04-19T21:58:58.101Z,4.50
2018-04-19T22:01:27.341Z,4.77
2018-04-19T22:03:55.628Z,4.30
2018-04-19T22:06:23.912Z,4.80
2018-04-19T22:08:52.961Z,4.47
2018-04-19T22:11:21.207Z,5.07
2018-04-19T22:13:50.247Z,4.63
2018-04-19T22:16:18.517Z,4.30
2018-04-19T22:18:47.599Z,3.90
2018-04-19T22:21:16.616Z,4.23
2018-04-19T22:23:45.655Z,4.33
2018-04-19T22:26:13.932Z,4.30
2018-04-19T22:28:42.204Z,4.30
2018-04-19T22:31:11.257Z,3.90
2018-04-19T22:33:39.525Z,4.07
2018-04-19T22:36:07.772Z,3.77
2018-04-19T22:38:36.036Z,3.80
2018-04-19T22:41:04.299Z,3.40
2018-04-19T22:43:32.549Z,3.70
2018-04-19T22:46:01.593Z,3.53
2018-04-19T22:48:29.852Z,3.35
2018-04-19T22:50:58.876Z,3.67
2018-04-19T22:53:27.166Z,3.73
2018-04-19T22:55:56.170Z,3.27
2018-04-19T22:58:24.438Z,3.50
2018-04-19T23:01:19.595Z,3.60
2018-04-19T23:03:47.847Z,3.47
2018-04-19T23:06:16.093Z,3.50
2018-04-19T23:08:44.397Z,4.10
2018-04-19T23:11:12.651Z,3.37
2018-04-19T23:13:40.903Z,3.67
2018-04-19T23:16:09.193Z,3.27
2018-04-19T23:18:37.447Z,3.43
2018-04-19T23:21:06.466Z,3.90
2018-04-19T23:23:34.873Z,3.70
2018-04-19T23:26:03.144Z,3.40
2018-04-19T23:28:31.401Z,3.87
2018-04-19T23:30:59.693Z,4.43
2018-04-19T23:33:27.955Z,3.90
2018-04-19T23:35:56.979Z,3.63
2018-04-19T23:38:26.005Z,3.80
2018-04-19T23:40:54.281Z,3.57
2018-04-19T23:43:22.529Z,3.63
2018-04-19T23:45:50.841Z,3.57
2018-04-19T23:48:19.864Z,3.67
2018-04-19T23:50:48.134Z,3.80
2018-04-19T23:53:17.233Z,4.27
2018-04-19T23:55:45.481Z,4.30
2018-04-19T23:58:13.741Z,4.60
